createdAt,value
2022-09-13T00:01:38.908Z,99711.81
2022-09-13T00:04:06.681Z,99704.81
2022-09-13T00:06:34.089Z,99718.81
2022-09-13T00:09:01.565Z,99708.12
2022-09-13T00:11:29.819Z,99711.63
2022-09-13T00:13:57.664Z,99713.47
2022-09-13T00:16:26.366Z,99716.97
2022-09-13T00:18:54.377Z,99722.94
2022-09-13T00:21:22.516Z,99720.28
2022-09-13T00:23:51.556Z,99713.69
2022-09-13T00:26:24.335Z,99700.28
2022-09-13T00:29:00.665Z,99706.47
2022-09-13T00:31:28.197Z,99702.13
2022-09-13T00:33:55.966Z,99710.97
2022-09-13T00:36:23.303Z,99711.59
2022-09-13T00:38:50.924Z,99711.41
2022-09-13T00:41:19.062Z,99702.75
2022-09-13T00:43:54.615Z,99706.91
2022-09-13T00:46:44.394Z,99711.16
2022-09-13T00:49:21.359Z,99721.56
2022-09-13T00:51:54.482Z,99723.31
2022-09-13T00:54:22.904Z,99717.13
2022-09-13T00:56:52.836Z,99719.09
2022-09-13T00:59:26.731Z,99724.00
2022-09-13T01:01:55.584Z,99713.06
2022-09-13T01:04:24.532Z,99710.78
2022-09-13T01:06:52.532Z,99710.38
2022-09-13T01:09:20.129Z,99717.47
2022-09-13T01:11:50.117Z,99705.38
2022-09-13T01:14:18.169Z,99710.97
2022-09-13T01:16:47.846Z,99710.34
2022-09-13T01:19:15.732Z,99702.91
2022-09-13T01:22:12.865Z,99711.37
2022-09-13T01:24:54.768Z,99715.00
2022-09-13T01:28:16.079Z,99712.09
2022-09-13T01:31:02.587Z,99718.63
2022-09-13T01:33:32.835Z,99705.94
2022-09-13T01:36:38.019Z,99713.28
2022-09-13T01:39:06.679Z,99709.59
2022-09-13T01:42:01.920Z,99712.75
2022-09-13T01:44:55.240Z,99712.09
2022-09-13T01:47:59.489Z,99708.19
2022-09-13T01:50:34.885Z,99705.59
2022-09-13T01:53:43.981Z,99702.47
2022-09-13T01:56:28.011Z,99701.19
2022-09-13T01:58:58.266Z,99693.28
2022-09-13T02:01:29.736Z,99691.72
2022-09-13T02:04:02.691Z,99693.63
2022-09-13T02:06:35.467Z,99696.44
2022-09-13T02:09:23.052Z,99700.16
2022-09-13T02:11:54.576Z,99687.41
2022-09-13T02:14:24.892Z,99688.19
2022-09-13T02:16:58.952Z,99695.22
2022-09-13T02:19:31.606Z,99685.72
2022-09-13T02:21:59.934Z,99691.91
2022-09-13T02:24:34.935Z,99691.50
2022-09-13T02:27:11.488Z,99688.34
2022-09-13T02:29:40.573Z,99686.72
2022-09-13T02:32:12.204Z,99675.13
2022-09-13T02:34:46.157Z,99675.69
2022-09-13T02:37:13.797Z,99677.81
2022-09-13T02:39:44.768Z,99674.22
2022-09-13T02:42:23.380Z,99682.44
2022-09-13T02:44:52.848Z,99674.41
2022-09-13T02:47:38.528Z,99670.00
2022-09-13T02:50:21.179Z,99678.03
2022-09-13T02:53:25.891Z,99675.56
2022-09-13T02:56:06.337Z,99673.72
2022-09-13T02:58:39.715Z,99664.28
2022-09-13T03:01:07.383Z,99663.44
2022-09-13T03:03:34.774Z,99661.75
2022-09-13T03:06:02.521Z,99658.97
2022-09-13T03:08:30.612Z,99659.03
2022-09-13T03:11:22.317Z,99656.56
2022-09-13T03:14:05.187Z,99647.53
2022-09-13T03:17:03.514Z,99656.03
2022-09-13T03:19:58.935Z,99655.28
2022-09-13T03:22:51.430Z,99647.34
2022-09-13T03:25:35.563Z,99649.87
2022-09-13T03:28:15.096Z,99644.91
2022-09-13T03:30:46.570Z,99647.56
2022-09-13T03:33:31.703Z,99638.66
2022-09-13T03:36:33.674Z,99646.06
2022-09-13T03:39:14.839Z,99643.16
2022-09-13T03:41:44.864Z,99639.03
2022-09-13T03:44:14.075Z,99645.19
2022-09-13T03:46:42.331Z,99634.75
2022-09-13T03:49:14.974Z,99639.56
2022-09-13T03:51:44.059Z,99637.56
2022-09-13T03:54:16.631Z,99634.25
2022-09-13T03:56:43.956Z,99637.31
2022-09-13T03:59:11.793Z,99646.84
2022-09-13T04:01:39.426Z,99653.78
2022-09-13T04:04:07.001Z,99655.56
2022-09-13T04:06:34.316Z,99659.69
2022-09-13T04:09:01.824Z,99659.38
2022-09-13T04:11:30.160Z,99663.34
2022-09-13T04:13:57.754Z,99665.16
2022-09-13T04:16:25.126Z,99663.53
2022-09-13T04:18:52.742Z,99646.41
2022-09-13T04:21:20.085Z,99651.94
2022-09-13T04:23:49.955Z,99651.78
2022-09-13T04:26:17.564Z,99656.50
2022-09-13T04:28:44.902Z,99652.31
2022-09-13T04:31:12.274Z,99652.06
2022-09-13T04:33:41.215Z,99645.97
2022-09-13T04:36:08.512Z,99655.66
2022-09-13T04:38:36.952Z,99645.88
2022-09-13T04:41:04.960Z,99645.84
2022-09-13T04:43:32.341Z,99652.66
2022-09-13T04:46:00.766Z,99645.56
2022-09-13T04:48:28.617Z,99646.62
2022-09-13T04:51:02.157Z,99647.28
2022-09-13T04:53:29.766Z,99644.81
2022-09-13T04:56:04.034Z,99648.84
2022-09-13T04:58:32.284Z,99652.41
2022-09-13T05:01:03.999Z,99654.38
2022-09-13T05:03:32.223Z,99652.69
2022-09-13T05:06:09.896Z,99648.09
2022-09-13T05:08:37.617Z,99651.50
2022-09-13T05:11:05.216Z,99650.31
2022-09-13T05:13:32.578Z,99651.50
2022-09-13T05:16:02.381Z,99654.47
2022-09-13T05:18:32.480Z,99654.94
2022-09-13T05:21:00.838Z,99662.41
2022-09-13T05:23:28.994Z,99658.72
2022-09-13T05:25:57.278Z,99662.78
2022-09-13T05:28:25.262Z,99659.34
2022-09-13T05:30:57.374Z,99648.09
2022-09-13T05:33:26.042Z,99656.47
2022-09-13T05:35:53.420Z,99661.97
2022-09-13T05:38:21.269Z,99656.94
2022-09-13T05:40:49.011Z,99656.28
2022-09-13T05:43:16.738Z,99648.94
2022-09-13T05:45:44.275Z,99653.97
2022-09-13T05:48:12.422Z,99651.97
2022-09-13T05:50:57.809Z,99656.13
2022-09-13T05:53:26.251Z,99654.06
2022-09-13T05:55:53.617Z,99649.78
2022-09-13T05:58:20.931Z,99657.34
2022-09-13T06:00:54.330Z,99662.75
2022-09-13T06:03:22.724Z,99659.88
2022-09-13T06:05:50.206Z,99659.69
2022-09-13T06:08:17.750Z,99662.97
2022-09-13T06:10:54.025Z,99663.16
2022-09-13T06:13:21.750Z,99657.72
2022-09-13T06:15:49.474Z,99655.22
2022-09-13T06:18:17.710Z,99649.03
2022-09-13T06:20:45.613Z,99646.72
2022-09-13T06:23:16.289Z,99649.34
2022-09-13T06:25:43.697Z,99644.78
2022-09-13T06:28:11.069Z,99644.75
2022-09-13T06:30:38.694Z,99652.53
2022-09-13T06:33:06.045Z,99639.72
2022-09-13T06:35:33.378Z,99642.09
2022-09-13T06:38:00.987Z,99644.09
2022-09-13T06:40:28.924Z,99643.16
2022-09-13T06:42:56.383Z,99643.03
2022-09-13T06:45:24.033Z,99636.16
2022-09-13T06:47:55.086Z,99642.22
2022-09-13T06:50:22.448Z,99633.00
2022-09-13T06:52:50.068Z,99632.06
2022-09-13T06:55:17.390Z,99633.97
2022-09-13T06:57:44.745Z,99635.87
2022-09-13T07:00:12.741Z,99640.03
2022-09-13T07:02:40.222Z,99644.88
2022-09-13T07:05:07.870Z,99643.84
2022-09-13T07:07:35.478Z,99649.38
2022-09-13T07:10:02.840Z,99639.84
2022-09-13T07:12:30.232Z,99641.94
2022-09-13T07:14:57.858Z,99648.13
2022-09-13T07:17:27.498Z,99648.38
2022-09-13T07:19:58.464Z,99643.87
2022-09-13T07:22:27.786Z,99647.97
2022-09-13T07:24:55.145Z,99644.63
2022-09-13T07:27:22.766Z,99653.03
2022-09-13T07:29:50.136Z,99655.03
2022-09-13T07:32:17.493Z,99648.34
2022-09-13T07:34:45.130Z,99653.00
2022-09-13T07:37:12.513Z,99645.41
2022-09-13T07:39:39.908Z,99653.34
2022-09-13T07:42:07.546Z,99646.75
2022-09-13T07:44:34.962Z,99647.09
2022-09-13T07:47:02.327Z,99630.41
2022-09-13T07:49:29.945Z,99644.44
2022-09-13T07:51:57.328Z,99647.00
2022-09-13T07:54:24.674Z,99637.63
2022-09-13T07:56:52.309Z,99643.50
2022-09-13T07:59:19.679Z,99644.88
2022-09-13T08:01:51.068Z,99639.88
2022-09-13T08:04:21.175Z,99637.84
2022-09-13T08:06:48.544Z,99639.22
2022-09-13T08:09:16.084Z,99638.91
2022-09-13T08:11:45.367Z,99642.81
2022-09-13T08:14:14.589Z,99628.37
2022-09-13T08:16:42.023Z,99634.56
2022-09-13T08:19:12.017Z,99637.81
2022-09-13T08:21:40.522Z,99640.47
2022-09-13T08:24:08.837Z,99646.88
2022-09-13T08:26:36.788Z,99642.78
2022-09-13T08:29:05.282Z,99640.22
2022-09-13T08:31:32.708Z,99640.00
2022-09-13T08:34:00.469Z,99642.53
2022-09-13T08:36:28.135Z,99634.13
2022-09-13T08:39:00.233Z,99628.06
2022-09-13T08:41:33.638Z,99639.69
2022-09-13T08:44:33.076Z,99640.97
2022-09-13T08:47:27.795Z,99640.28
2022-09-13T08:50:18.719Z,99635.34
2022-09-13T08:53:01.812Z,99634.97
2022-09-13T08:55:43.376Z,99631.91
2022-09-13T08:58:25.729Z,99627.53
2022-09-13T09:00:59.391Z,99631.66
2022-09-13T09:04:00.996Z,99627.94
2022-09-13T09:06:31.658Z,99621.97
2022-09-13T09:09:07.749Z,99629.19
2022-09-13T09:11:52.060Z,99633.00
2022-09-13T09:14:32.492Z,99620.97
2022-09-13T09:17:04.045Z,99620.31
2022-09-13T09:19:40.449Z,99626.66
2022-09-13T09:22:18.114Z,99629.88
2022-09-13T09:24:47.637Z,99615.94
2022-09-13T09:27:16.704Z,99601.59
2022-09-13T09:29:44.593Z,99612.66
2022-09-13T09:32:21.962Z,99612.16
2022-09-13T09:35:15.418Z,99611.75
2022-09-13T09:37:43.841Z,99602.31
2022-09-13T09:40:13.059Z,99603.53
2022-09-13T09:42:46.214Z,99600.75
2022-09-13T09:45:34.657Z,99606.66
2022-09-13T09:48:05.952Z,99601.44
2022-09-13T09:50:36.448Z,99599.66
2022-09-13T09:53:17.098Z,99589.59
2022-09-13T09:55:53.413Z,99593.84
2022-09-13T09:58:40.841Z,99574.44
2022-09-13T10:01:35.115Z,99568.44
2022-09-13T10:04:03.081Z,99565.06
2022-09-13T10:06:30.933Z,99558.91
2022-09-13T10:09:02.001Z,99547.97
2022-09-13T10:11:47.911Z,99554.78
2022-09-13T10:14:34.602Z,99550.87
2022-09-13T10:17:21.246Z,99552.31
2022-09-13T10:20:01.285Z,99549.59
2022-09-13T10:22:29.863Z,99551.56
2022-09-13T10:25:13.861Z,99548.75
2022-09-13T10:27:42.881Z,99551.22
2022-09-13T10:30:31.138Z,99539.19
2022-09-13T10:32:58.874Z,99532.97
2022-09-13T10:35:26.208Z,99531.91
2022-09-13T10:37:53.562Z,99536.09
2022-09-13T10:40:30.340Z,99527.97
2022-09-13T10:42:58.194Z,99526.28
2022-09-13T10:45:27.542Z,99525.91
2022-09-13T10:48:05.976Z,99537.19
2022-09-13T10:50:35.915Z,99535.03
2022-09-13T10:53:05.152Z,99524.47
2022-09-13T10:55:37.015Z,99524.84
2022-09-13T10:58:07.715Z,99530.28
2022-09-13T11:01:02.925Z,99524.84
2022-09-13T11:03:51.289Z,99523.22
2022-09-13T11:06:21.541Z,99529.75
2022-09-13T11:09:04.373Z,99528.19
2022-09-13T11:11:46.640Z,99514.13
2022-09-13T11:14:45.517Z,99515.94
2022-09-13T11:17:31.657Z,99510.69
2022-09-13T11:20:18.195Z,99510.16
2022-09-13T11:23:00.431Z,99520.72
2022-09-13T11:25:51.328Z,99512.28
2022-09-13T11:28:51.101Z,99516.94
2022-09-13T11:31:28.771Z,99512.53
2022-09-13T11:34:17.148Z,99511.22
2022-09-13T11:37:15.310Z,99501.97
2022-09-13T11:39:45.246Z,99499.84
2022-09-13T11:42:36.356Z,99488.44
2022-09-13T11:45:21.657Z,99486.00
2022-09-13T11:48:11.385Z,99477.31
2022-09-13T11:51:10.744Z,99469.13
2022-09-13T11:53:45.282Z,99471.03
2022-09-13T11:56:20.117Z,99474.53
2022-09-13T11:58:50.686Z,99468.75
2022-09-13T12:01:40.777Z,99466.97
2022-09-13T12:04:16.088Z,99463.44
2022-09-13T12:06:45.673Z,99466.72
2022-09-13T12:09:18.260Z,99469.97
2022-09-13T12:11:48.387Z,99473.47
2022-09-13T12:14:17.965Z,99474.03
2022-09-13T12:16:48.581Z,99474.84
2022-09-13T12:19:24.793Z,99463.97
2022-09-13T12:21:53.690Z,99462.88
2022-09-13T12:24:46.630Z,99465.06
2022-09-13T12:27:27.177Z,99466.09
2022-09-13T12:29:56.854Z,99459.03
2022-09-13T12:32:24.610Z,99452.00
2022-09-13T12:35:07.454Z,99456.62
2022-09-13T12:37:47.146Z,99449.28
2022-09-13T12:40:35.455Z,99453.06
2022-09-13T12:43:24.298Z,99460.91
2022-09-13T12:46:29.255Z,99456.19
2022-09-13T12:49:27.909Z,99445.19
2022-09-13T12:52:21.361Z,99441.69
2022-09-13T12:55:02.162Z,99443.59
2022-09-13T12:57:33.182Z,99441.16
2022-09-13T13:00:14.373Z,99439.53
2022-09-13T13:02:54.349Z,99447.41
2022-09-13T13:05:22.270Z,99433.00
2022-09-13T13:08:01.209Z,99439.50
2022-09-13T13:10:30.733Z,99437.25
2022-09-13T13:13:36.033Z,99434.31
2022-09-13T13:16:31.623Z,99435.09
2022-09-13T13:19:02.684Z,99436.69
2022-09-13T13:21:34.340Z,99431.59
2022-09-13T13:24:16.878Z,99435.00
2022-09-13T13:26:49.443Z,99434.22
2022-09-13T13:29:30.138Z,99427.91
2022-09-13T13:31:57.731Z,99416.91
2022-09-13T13:34:35.876Z,99419.88
2022-09-13T13:37:28.377Z,99423.16
2022-09-13T13:40:12.777Z,99420.41
2022-09-13T13:42:40.478Z,99407.97
2022-09-13T13:45:20.357Z,99423.69
2022-09-13T13:48:06.370Z,99409.53
2022-09-13T13:50:36.258Z,99402.44
2022-09-13T13:53:21.984Z,99402.19
2022-09-13T13:55:49.368Z,99402.44
2022-09-13T13:58:46.940Z,99405.44
2022-09-13T14:01:27.162Z,99408.16
2022-09-13T14:04:16.164Z,99412.22
2022-09-13T14:07:05.944Z,99409.84
2022-09-13T14:09:55.872Z,99408.69
2022-09-13T14:12:32.185Z,99396.53
2022-09-13T14:15:16.749Z,99396.22
2022-09-13T14:17:50.017Z,99389.31
2022-09-13T14:20:18.557Z,99389.47
2022-09-13T14:22:45.942Z,99396.84
2022-09-13T14:25:23.566Z,99390.41
2022-09-13T14:27:54.138Z,99383.97
2022-09-13T14:30:27.307Z,99373.66
2022-09-13T14:32:56.335Z,99379.53
2022-09-13T14:35:26.680Z,99378.41
2022-09-13T14:37:54.115Z,99388.34
2022-09-13T14:40:24.153Z,99392.66
2022-09-13T14:42:51.864Z,99373.94
2022-09-13T14:45:36.011Z,99375.91
2022-09-13T14:48:07.162Z,99376.94
2022-09-13T14:50:58.087Z,99375.03
2022-09-13T14:53:26.907Z,99375.75
2022-09-13T14:56:04.394Z,99369.72
2022-09-13T14:58:42.154Z,99367.28
2022-09-13T15:01:10.908Z,99366.81
2022-09-13T15:03:42.206Z,99360.75
2022-09-13T15:06:26.307Z,99355.09
2022-09-13T15:08:56.099Z,99363.50
2022-09-13T15:11:34.550Z,99359.38
2022-09-13T15:14:39.916Z,99354.47
2022-09-13T15:17:09.174Z,99351.06
2022-09-13T15:19:41.402Z,99355.00
2022-09-13T15:22:15.789Z,99347.94
2022-09-13T15:24:48.339Z,99349.78
2022-09-13T15:27:23.731Z,99341.38
2022-09-13T15:29:52.806Z,99340.94
2022-09-13T15:32:41.293Z,99341.19
2022-09-13T15:35:30.128Z,99338.13
2022-09-13T15:38:01.572Z,99333.62
2022-09-13T15:40:30.123Z,99330.66
2022-09-13T15:42:57.818Z,99329.53
2022-09-13T15:45:25.368Z,99333.34
2022-09-13T15:47:52.971Z,99325.19
2022-09-13T15:50:26.888Z,99330.09
2022-09-13T15:52:54.975Z,99324.41
2022-09-13T15:55:22.353Z,99330.37
2022-09-13T15:57:49.997Z,99326.94
2022-09-13T16:00:25.895Z,99324.97
2022-09-13T16:02:53.497Z,99315.50
2022-09-13T16:05:20.972Z,99307.13
2022-09-13T16:07:48.387Z,99312.75
2022-09-13T16:10:18.874Z,99304.91
2022-09-13T16:12:46.289Z,99313.00
2022-09-13T16:15:13.705Z,99306.53
2022-09-13T16:17:41.726Z,99300.53
2022-09-13T16:20:12.554Z,99306.47
2022-09-13T16:22:39.927Z,99300.50
2022-09-13T16:25:07.601Z,99311.03
2022-09-13T16:27:35.281Z,99301.31
2022-09-13T16:30:02.689Z,99295.59
2022-09-13T16:32:30.237Z,99300.19
2022-09-13T16:34:57.809Z,99292.28
2022-09-13T16:37:25.182Z,99292.25
2022-09-13T16:39:52.553Z,99300.16
2022-09-13T16:42:20.162Z,99302.22
2022-09-13T16:44:47.522Z,99299.53
2022-09-13T16:47:14.873Z,99294.03
2022-09-13T16:49:42.463Z,99291.22
2022-09-13T16:52:09.890Z,99296.09
2022-09-13T16:54:37.493Z,99290.66
2022-09-13T16:57:06.260Z,99299.81
2022-09-13T16:59:35.181Z,99297.66
2022-09-13T17:02:03.716Z,99303.47
2022-09-13T17:04:31.445Z,99300.28
2022-09-13T17:06:58.780Z,99299.63
2022-09-13T17:09:27.599Z,99310.47
2022-09-13T17:11:55.588Z,99303.97
2022-09-13T17:14:22.957Z,99311.16
2022-09-13T17:16:54.663Z,99313.44
2022-09-13T17:19:33.475Z,99316.16
2022-09-13T17:22:03.549Z,99308.63
2022-09-13T17:24:31.899Z,99315.50
2022-09-13T17:27:00.638Z,99312.31
2022-09-13T17:29:31.490Z,99306.91
2022-09-13T17:32:00.186Z,99312.59
2022-09-13T17:34:28.228Z,99315.50
2022-09-13T17:36:57.083Z,99314.78
2022-09-13T17:39:25.100Z,99315.37
2022-09-13T17:41:52.828Z,99309.91
2022-09-13T17:44:21.040Z,99308.03
2022-09-13T17:46:49.293Z,99304.78
2022-09-13T17:49:17.029Z,99309.75
2022-09-13T17:51:44.458Z,99306.47
2022-09-13T17:54:16.608Z,99312.69
2022-09-13T17:56:46.790Z,99314.28
2022-09-13T17:59:19.903Z,99302.59
2022-09-13T18:01:49.703Z,99308.50
2022-09-13T18:04:21.435Z,99315.66
2022-09-13T18:06:51.023Z,99316.31
2022-09-13T18:09:18.648Z,99311.75
2022-09-13T18:11:47.542Z,99319.53
2022-09-13T18:14:20.361Z,99322.75
2022-09-13T18:16:55.404Z,99315.09
2022-09-13T18:19:44.196Z,99325.38
2022-09-13T18:22:13.477Z,99315.25
2022-09-13T18:24:41.176Z,99322.25
2022-09-13T18:27:08.498Z,99328.69
2022-09-13T18:29:36.236Z,99331.34
2022-09-13T18:32:03.943Z,99328.78
2022-09-13T18:34:31.333Z,99333.34
2022-09-13T18:37:08.780Z,99336.09
2022-09-13T18:39:36.534Z,99335.69
2022-09-13T18:42:05.425Z,99337.75
2022-09-13T18:44:33.987Z,99345.75
2022-09-13T18:47:05.203Z,99349.06
2022-09-13T18:49:34.526Z,99343.00
2022-09-13T18:52:03.187Z,99347.88
2022-09-13T18:54:32.059Z,99352.06
2022-09-13T18:57:00.320Z,99357.62
2022-09-13T18:59:30.352Z,99352.72
2022-09-13T19:02:00.228Z,99352.87
2022-09-13T19:04:31.989Z,99350.41
2022-09-13T19:06:59.605Z,99345.47
2022-09-13T19:09:27.030Z,99348.59
2022-09-13T19:11:56.000Z,99352.38
2022-09-13T19:14:25.913Z,99353.16
2022-09-13T19:16:54.528Z,99347.94
2022-09-13T19:19:24.936Z,99351.72
2022-09-13T19:21:52.272Z,99343.19
2022-09-13T19:24:23.909Z,99337.97
2022-09-13T19:26:52.811Z,99348.47
2022-09-13T19:29:21.895Z,99356.00
2022-09-13T19:31:51.377Z,99353.00
2022-09-13T19:34:21.968Z,99353.28
2022-09-13T19:36:50.602Z,99347.28
2022-09-13T19:39:18.528Z,99342.38
2022-09-13T19:41:46.626Z,99343.09
2022-09-13T19:44:14.082Z,99345.56
2022-09-13T19:46:43.093Z,99342.75
2022-09-13T19:49:12.945Z,99342.62
2022-09-13T19:51:40.464Z,99340.16
2022-09-13T19:54:09.580Z,99341.00
2022-09-13T19:56:39.555Z,99343.09
2022-09-13T19:59:09.881Z,99332.59
2022-09-13T20:01:40.168Z,99343.69
2022-09-13T20:04:12.310Z,99342.50
2022-09-13T20:06:41.335Z,99336.53
2022-09-13T20:09:09.470Z,99331.53
2022-09-13T20:11:41.454Z,99334.72
2022-09-13T20:14:10.179Z,99339.13
2022-09-13T20:16:38.532Z,99333.66
2022-09-13T20:19:18.624Z,99332.50
2022-09-13T20:21:54.584Z,99342.12
2022-09-13T20:24:22.007Z,99344.06
2022-09-13T20:26:52.302Z,99347.94
2022-09-13T20:29:20.864Z,99339.72
2022-09-13T20:31:48.307Z,99333.62
2022-09-13T20:34:15.878Z,99333.31
2022-09-13T20:36:47.322Z,99332.00
2022-09-13T20:39:15.501Z,99338.53
2022-09-13T20:41:43.655Z,99325.91
2022-09-13T20:44:11.695Z,99320.09
2022-09-13T20:46:40.508Z,99338.50
2022-09-13T20:49:09.198Z,99330.66
2022-09-13T20:51:37.251Z,99330.94
2022-09-13T20:54:05.187Z,99324.97
2022-09-13T20:56:34.468Z,99331.37
2022-09-13T20:59:02.249Z,99326.62
2022-09-13T21:01:30.265Z,99328.94
2022-09-13T21:03:58.471Z,99329.91
2022-09-13T21:06:27.289Z,99330.47
2022-09-13T21:08:56.300Z,99323.03
2022-09-13T21:11:33.949Z,99329.16
2022-09-13T21:14:03.580Z,99325.25
2022-09-13T21:16:36.132Z,99320.09
2022-09-13T21:19:03.558Z,99311.59
2022-09-13T21:21:33.724Z,99323.13
2022-09-13T21:24:03.590Z,99318.47
2022-09-13T21:26:31.301Z,99309.41
2022-09-13T21:28:58.781Z,99311.69
2022-09-13T21:31:30.639Z,99312.41
2022-09-13T21:34:00.095Z,99325.06
2022-09-13T21:36:27.728Z,99313.63
2022-09-13T21:38:55.803Z,99313.16
2022-09-13T21:41:24.371Z,99305.72
2022-09-13T21:43:51.783Z,99302.16
2022-09-13T21:46:26.860Z,99304.12
2022-09-13T21:48:56.078Z,99299.63
2022-09-13T21:51:25.196Z,99305.75
2022-09-13T21:53:58.140Z,99303.16
2022-09-13T21:56:28.533Z,99303.62
2022-09-13T21:59:00.005Z,99301.00
2022-09-13T22:01:30.022Z,99302.25
2022-09-13T22:03:58.045Z,99303.59
2022-09-13T22:06:26.702Z,99301.16
2022-09-13T22:08:57.658Z,99298.03
2022-09-13T22:11:26.900Z,99292.50
2022-09-13T22:13:54.517Z,99288.81
2022-09-13T22:16:30.498Z,99286.25
2022-09-13T22:19:08.476Z,99287.91
2022-09-13T22:21:39.347Z,99286.03
2022-09-13T22:24:07.839Z,99279.81
2022-09-13T22:26:37.941Z,99284.31
2022-09-13T22:29:05.380Z,99289.41
2022-09-13T22:31:40.209Z,99292.13
2022-09-13T22:34:08.515Z,99285.31
2022-09-13T22:36:36.134Z,99277.44
2022-09-13T22:39:03.694Z,99275.16
2022-09-13T22:41:32.346Z,99273.00
2022-09-13T22:44:00.219Z,99271.16
2022-09-13T22:46:29.446Z,99272.19
2022-09-13T22:48:56.821Z,99274.69
2022-09-13T22:51:24.572Z,99280.06
2022-09-13T22:53:52.515Z,99276.44
2022-09-13T22:56:37.780Z,99283.91
2022-09-13T22:59:07.910Z,99284.97
2022-09-13T23:01:35.557Z,99275.16
2022-09-13T23:04:03.049Z,99281.47
2022-09-13T23:06:30.976Z,99280.06
2022-09-13T23:09:00.092Z,99278.41
2022-09-13T23:11:30.942Z,99279.59
2022-09-13T23:14:00.144Z,99287.09
2022-09-13T23:16:29.625Z,99288.22
2022-09-13T23:18:57.245Z,99288.72
2022-09-13T23:21:26.795Z,99287.09
2022-09-13T23:23:54.249Z,99282.38
2022-09-13T23:26:22.833Z,99289.72
2022-09-13T23:28:56.773Z,99280.66
2022-09-13T23:31:28.508Z,99278.47
2022-09-13T23:33:58.276Z,99270.09
2022-09-13T23:36:27.219Z,99283.63
2022-09-13T23:38:56.098Z,99283.06
2022-09-13T23:41:24.710Z,99289.50
2022-09-13T23:43:52.653Z,99284.81
2022-09-13T23:46:20.170Z,99289.38
2022-09-13T23:48:47.927Z,99283.94
2022-09-13T23:51:19.626Z,99283.87
2022-09-13T23:53:47.210Z,99279.78
2022-09-13T23:56:16.731Z,99272.16
2022-09-13T23:58:44.084Z,99271.38
